Anderson, Nebraska
Current Conditions -  °F | °C
As of 12:35 AM on Monday 24 Nov 2014 (Local Time) from KHDE Reporting Station
Broken Clouds Broken Clouds  
Wind Chill: 24°   Ceiling: 7000
Heat Index: 32°   Visibility: 10mi
Dew Point: 22°   Wind: 10mph
Humidity: 67%   Direction: 280°W
Pressure: 29.67"   Gusts: 16mph
Location:  40.5251°N, 99.2414°W
Report Text: KHDE 240635Z AUTO 28009G14KT 10SM BKN070 00/M05 A2967 RMK AO2 T00011053
Loading
Personal Weather Stations






























Interactive Weather Map New forecast layout! Learn more

10-Day Weather Forecast

Advertisements
Track Severe Weather on mobile